sensor_id;sensor_type;location;lat;lon;timestamp;P1;durP1;ratioP1;P2;durP2;ratioP2
55762;SDS011;42162;51.958;5.426;2023-09-07T00:01:00;6.80;;;3.53;;
55762;SDS011;42162;51.958;5.426;2023-09-07T00:03:27;7.63;;;3.42;;
55762;SDS011;42162;51.958;5.426;2023-09-07T00:05:55;4.22;;;3.00;;
55762;SDS011;42162;51.958;5.426;2023-09-07T00:08:22;4.65;;;3.30;;
55762;SDS011;42162;51.958;5.426;2023-09-07T00:10:49;6.25;;;3.55;;
55762;SDS011;42162;51.958;5.426;2023-09-07T00:13:16;8.13;;;3.50;;
55762;SDS011;42162;51.958;5.426;2023-09-07T00:15:43;7.78;;;3.95;;
55762;SDS011;42162;51.958;5.426;2023-09-07T00:18:10;5.93;;;3.70;;
55762;SDS011;42162;51.958;5.426;2023-09-07T00:20:37;5.68;;;3.55;;
55762;SDS011;42162;51.958;5.426;2023-09-07T00:23:04;5.22;;;3.95;;
55762;SDS011;42162;51.958;5.426;2023-09-07T00:25:32;7.05;;;3.53;;
55762;SDS011;42162;51.958;5.426;2023-09-07T00:27:59;5.03;;;3.55;;
55762;SDS011;42162;51.958;5.426;2023-09-07T00:30:26;4.28;;;3.72;;
55762;SDS011;42162;51.958;5.426;2023-09-07T00:32:54;5.80;;;3.50;;
55762;SDS011;42162;51.958;5.426;2023-09-07T00:35:21;5.82;;;3.60;;
55762;SDS011;42162;51.958;5.426;2023-09-07T00:37:48;9.65;;;3.92;;
55762;SDS011;42162;51.958;5.426;2023-09-07T00:40:15;5.35;;;4.10;;
55762;SDS011;42162;51.958;5.426;2023-09-07T00:42:42;4.95;;;3.20;;
55762;SDS011;42162;51.958;5.426;2023-09-07T00:45:09;4.60;;;3.83;;
55762;SDS011;42162;51.958;5.426;2023-09-07T00:47:36;9.85;;;4.40;;
55762;SDS011;42162;51.958;5.426;2023-09-07T00:50:06;5.07;;;4.25;;
55762;SDS011;42162;51.958;5.426;2023-09-07T00:52:34;5.22;;;3.83;;
55762;SDS011;42162;51.958;5.426;2023-09-07T00:55:07;5.65;;;3.35;;
55762;SDS011;42162;51.958;5.426;2023-09-07T00:57:36;5.68;;;4.00;;
55762;SDS011;42162;51.958;5.426;2023-09-07T01:00:06;10.98;;;3.72;;
55762;SDS011;42162;51.958;5.426;2023-09-07T01:02:34;8.48;;;4.45;;
55762;SDS011;42162;51.958;5.426;2023-09-07T01:05:02;6.88;;;4.22;;
55762;SDS011;42162;51.958;5.426;2023-09-07T01:07:51;5.35;;;3.85;;
55762;SDS011;42162;51.958;5.426;2023-09-07T01:10:24;6.93;;;3.85;;
55762;SDS011;42162;51.958;5.426;2023-09-07T01:12:51;9.65;;;4.05;;
55762;SDS011;42162;51.958;5.426;2023-09-07T01:15:18;4.80;;;3.75;;
55762;SDS011;42162;51.958;5.426;2023-09-07T01:17:45;5.03;;;4.07;;
55762;SDS011;42162;51.958;5.426;2023-09-07T01:20:13;5.30;;;4.00;;
55762;SDS011;42162;51.958;5.426;2023-09-07T01:22:44;5.97;;;3.97;;
55762;SDS011;42162;51.958;5.426;2023-09-07T01:25:11;7.38;;;4.50;;
55762;SDS011;42162;51.958;5.426;2023-09-07T01:27:39;7.20;;;4.55;;
55762;SDS011;42162;51.958;5.426;2023-09-07T01:30:07;5.03;;;4.25;;
55762;SDS011;42162;51.958;5.426;2023-09-07T01:32:35;9.70;;;4.38;;
55762;SDS011;42162;51.958;5.426;2023-09-07T01:35:02;5.60;;;3.90;;
55762;SDS011;42162;51.958;5.426;2023-09-07T01:37:33;8.13;;;4.40;;
55762;SDS011;42162;51.958;5.426;2023-09-07T01:40:01;6.13;;;4.47;;
55762;SDS011;42162;51.958;5.426;2023-09-07T01:45:00;5.32;;;4.18;;
55762;SDS011;42162;51.958;5.426;2023-09-07T01:47:28;5.00;;;4.10;;
55762;SDS011;42162;51.958;5.426;2023-09-07T01:49:55;8.55;;;4.07;;
55762;SDS011;42162;51.958;5.426;2023-09-07T01:52:22;6.75;;;4.00;;
55762;SDS011;42162;51.958;5.426;2023-09-07T01:54:49;4.85;;;4.20;;
55762;SDS011;42162;51.958;5.426;2023-09-07T01:57:17;5.68;;;4.43;;
55762;SDS011;42162;51.958;5.426;2023-09-07T01:59:44;10.77;;;3.97;;
55762;SDS011;42162;51.958;5.426;2023-09-07T02:02:11;6.40;;;3.90;;
55762;SDS011;42162;51.958;5.426;2023-09-07T02:04:38;8.80;;;4.63;;
55762;SDS011;42162;51.958;5.426;2023-09-07T02:07:05;9.07;;;4.82;;
55762;SDS011;42162;51.958;5.426;2023-09-07T02:09:33;5.28;;;4.28;;
55762;SDS011;42162;51.958;5.426;2023-09-07T02:12:00;6.88;;;4.78;;
55762;SDS011;42162;51.958;5.426;2023-09-07T02:14:27;8.52;;;4.63;;
55762;SDS011;42162;51.958;5.426;2023-09-07T02:16:54;4.82;;;4.07;;
55762;SDS011;42162;51.958;5.426;2023-09-07T02:19:22;6.55;;;4.90;;
55762;SDS011;42162;51.958;5.426;2023-09-07T02:21:50;6.95;;;4.50;;
55762;SDS011;42162;51.958;5.426;2023-09-07T02:24:19;10.13;;;4.78;;
55762;SDS011;42162;51.958;5.426;2023-09-07T02:26:46;4.85;;;3.90;;
55762;SDS011;42162;51.958;5.426;2023-09-07T02:29:13;6.07;;;4.80;;
55762;SDS011;42162;51.958;5.426;2023-09-07T02:31:40;5.57;;;4.60;;
55762;SDS011;42162;51.958;5.426;2023-09-07T02:34:07;7.63;;;4.38;;
55762;SDS011;42162;51.958;5.426;2023-09-07T02:36:35;10.73;;;4.70;;
55762;SDS011;42162;51.958;5.426;2023-09-07T02:39:04;8.43;;;4.63;;
55762;SDS011;42162;51.958;5.426;2023-09-07T02:41:31;7.32;;;5.30;;
55762;SDS011;42162;51.958;5.426;2023-09-07T02:43:58;6.88;;;5.10;;
55762;SDS011;42162;51.958;5.426;2023-09-07T02:46:25;5.28;;;4.35;;
55762;SDS011;42162;51.958;5.426;2023-09-07T02:48:52;5.55;;;4.50;;
55762;SDS011;42162;51.958;5.426;2023-09-07T02:51:24;14.35;;;5.80;;
55762;SDS011;42162;51.958;5.426;2023-09-07T02:53:55;8.02;;;4.85;;
55762;SDS011;42162;51.958;5.426;2023-09-07T02:56:22;5.25;;;4.30;;
55762;SDS011;42162;51.958;5.426;2023-09-07T02:58:49;9.88;;;5.47;;
55762;SDS011;42162;51.958;5.426;2023-09-07T03:01:16;6.63;;;5.45;;
55762;SDS011;42162;51.958;5.426;2023-09-07T03:03:46;7.78;;;4.50;;
55762;SDS011;42162;51.958;5.426;2023-09-07T03:06:14;7.22;;;5.18;;
55762;SDS011;42162;51.958;5.426;2023-09-07T03:08:46;5.30;;;4.63;;
55762;SDS011;42162;51.958;5.426;2023-09-07T03:11:13;9.27;;;5.28;;
55762;SDS011;42162;51.958;5.426;2023-09-07T03:13:41;12.18;;;5.15;;
55762;SDS011;42162;51.958;5.426;2023-09-07T03:16:09;8.60;;;5.30;;
55762;SDS011;42162;51.958;5.426;2023-09-07T03:18:37;7.38;;;5.13;;
55762;SDS011;42162;51.958;5.426;2023-09-07T03:21:04;7.00;;;4.45;;
55762;SDS011;42162;51.958;5.426;2023-09-07T03:23:32;5.53;;;4.85;;
55762;SDS011;42162;51.958;5.426;2023-09-07T03:26:01;7.20;;;5.25;;
55762;SDS011;42162;51.958;5.426;2023-09-07T03:28:28;9.90;;;4.55;;
55762;SDS011;42162;51.958;5.426;2023-09-07T03:30:56;6.35;;;5.38;;
55762;SDS011;42162;51.958;5.426;2023-09-07T03:33:23;12.68;;;5.70;;
55762;SDS011;42162;51.958;5.426;2023-09-07T03:35:51;7.47;;;6.20;;
55762;SDS011;42162;51.958;5.426;2023-09-07T03:38:18;13.82;;;4.90;;
55762;SDS011;42162;51.958;5.426;2023-09-07T03:40:46;7.85;;;4.53;;
55762;SDS011;42162;51.958;5.426;2023-09-07T03:43:14;10.00;;;5.47;;
55762;SDS011;42162;51.958;5.426;2023-09-07T03:45:41;10.55;;;5.55;;
55762;SDS011;42162;51.958;5.426;2023-09-07T03:48:08;5.85;;;4.80;;
55762;SDS011;42162;51.958;5.426;2023-09-07T03:50:37;9.30;;;5.05;;
55762;SDS011;42162;51.958;5.426;2023-09-07T03:53:04;12.50;;;5.97;;
55762;SDS011;42162;51.958;5.426;2023-09-07T03:55:39;11.25;;;4.40;;
55762;SDS011;42162;51.958;5.426;2023-09-07T03:58:11;10.82;;;5.75;;
55762;SDS011;42162;51.958;5.426;2023-09-07T04:00:40;8.35;;;4.80;;
55762;SDS011;42162;51.958;5.426;2023-09-07T04:03:08;13.00;;;6.20;;
55762;SDS011;42162;51.958;5.426;2023-09-07T04:05:38;7.38;;;5.25;;
55762;SDS011;42162;51.958;5.426;2023-09-07T04:08:06;6.82;;;5.10;;
55762;SDS011;42162;51.958;5.426;2023-09-07T04:10:36;7.97;;;4.55;;
55762;SDS011;42162;51.958;5.426;2023-09-07T04:13:04;9.73;;;5.57;;
55762;SDS011;42162;51.958;5.426;2023-09-07T04:15:44;9.45;;;4.65;;
55762;SDS011;42162;51.958;5.426;2023-09-07T04:18:14;7.95;;;6.07;;
55762;SDS011;42162;51.958;5.426;2023-09-07T04:20:45;8.95;;;5.43;;
55762;SDS011;42162;51.958;5.426;2023-09-07T04:23:13;6.05;;;5.45;;
55762;SDS011;42162;51.958;5.426;2023-09-07T04:25:40;8.95;;;5.15;;
55762;SDS011;42162;51.958;5.426;2023-09-07T04:28:08;11.30;;;5.47;;
55762;SDS011;42162;51.958;5.426;2023-09-07T04:30:39;6.97;;;4.57;;
55762;SDS011;42162;51.958;5.426;2023-09-07T04:33:07;6.97;;;4.95;;
55762;SDS011;42162;51.958;5.426;2023-09-07T04:35:36;12.07;;;5.20;;
55762;SDS011;42162;51.958;5.426;2023-09-07T04:38:03;5.75;;;5.15;;
55762;SDS011;42162;51.958;5.426;2023-09-07T04:40:31;7.55;;;5.72;;
55762;SDS011;42162;51.958;5.426;2023-09-07T04:42:59;7.93;;;5.57;;
55762;SDS011;42162;51.958;5.426;2023-09-07T04:45:26;10.13;;;4.70;;
55762;SDS011;42162;51.958;5.426;2023-09-07T04:47:53;10.90;;;6.20;;
55762;SDS011;42162;51.958;5.426;2023-09-07T04:50:20;9.35;;;5.47;;
55762;SDS011;42162;51.958;5.426;2023-09-07T04:52:47;5.63;;;5.00;;
55762;SDS011;42162;51.958;5.426;2023-09-07T04:55:14;7.55;;;5.57;;
55762;SDS011;42162;51.958;5.426;2023-09-07T04:57:41;8.07;;;5.85;;
55762;SDS011;42162;51.958;5.426;2023-09-07T05:00:09;7.03;;;5.50;;
55762;SDS011;42162;51.958;5.426;2023-09-07T05:02:36;7.85;;;5.70;;
55762;SDS011;42162;51.958;5.426;2023-09-07T05:05:09;6.88;;;5.07;;
55762;SDS011;42162;51.958;5.426;2023-09-07T05:07:36;7.28;;;4.90;;
55762;SDS011;42162;51.958;5.426;2023-09-07T05:10:04;13.70;;;6.25;;
55762;SDS011;42162;51.958;5.426;2023-09-07T05:12:33;8.70;;;5.60;;
55762;SDS011;42162;51.958;5.426;2023-09-07T05:15:00;6.70;;;5.68;;
55762;SDS011;42162;51.958;5.426;2023-09-07T05:17:28;8.85;;;5.43;;
55762;SDS011;42162;51.958;5.426;2023-09-07T05:19:55;12.15;;;6.63;;
55762;SDS011;42162;51.958;5.426;2023-09-07T05:22:25;43.60;;;11.52;;
55762;SDS011;42162;51.958;5.426;2023-09-07T05:24:53;15.18;;;7.05;;
55762;SDS011;42162;51.958;5.426;2023-09-07T05:27:20;10.43;;;6.57;;
55762;SDS011;42162;51.958;5.426;2023-09-07T05:29:47;10.07;;;7.18;;
55762;SDS011;42162;51.958;5.426;2023-09-07T05:32:15;11.48;;;7.13;;
55762;SDS011;42162;51.958;5.426;2023-09-07T05:34:42;13.02;;;6.55;;
55762;SDS011;42162;51.958;5.426;2023-09-07T05:37:09;7.30;;;6.00;;
55762;SDS011;42162;51.958;5.426;2023-09-07T05:39:38;7.13;;;5.18;;
55762;SDS011;42162;51.958;5.426;2023-09-07T05:42:05;16.70;;;6.65;;
55762;SDS011;42162;51.958;5.426;2023-09-07T05:44:32;14.00;;;5.30;;
55762;SDS011;42162;51.958;5.426;2023-09-07T05:46:59;11.15;;;5.72;;
55762;SDS011;42162;51.958;5.426;2023-09-07T05:49:26;7.63;;;6.00;;
55762;SDS011;42162;51.958;5.426;2023-09-07T05:51:54;9.77;;;5.75;;
55762;SDS011;42162;51.958;5.426;2023-09-07T05:54:24;7.55;;;5.95;;
55762;SDS011;42162;51.958;5.426;2023-09-07T05:56:51;8.18;;;5.40;;
55762;SDS011;42162;51.958;5.426;2023-09-07T05:59:18;7.43;;;5.30;;
55762;SDS011;42162;51.958;5.426;2023-09-07T06:01:46;8.75;;;6.35;;
55762;SDS011;42162;51.958;5.426;2023-09-07T06:04:13;15.65;;;6.80;;
55762;SDS011;42162;51.958;5.426;2023-09-07T06:06:40;9.93;;;6.32;;
55762;SDS011;42162;51.958;5.426;2023-09-07T06:09:08;6.65;;;5.05;;
55762;SDS011;42162;51.958;5.426;2023-09-07T06:11:35;9.25;;;6.47;;
55762;SDS011;42162;51.958;5.426;2023-09-07T06:14:04;12.32;;;6.05;;
55762;SDS011;42162;51.958;5.426;2023-09-07T06:16:31;9.27;;;6.13;;
55762;SDS011;42162;51.958;5.426;2023-09-07T06:18:58;8.70;;;5.60;;
55762;SDS011;42162;51.958;5.426;2023-09-07T06:21:25;7.88;;;5.97;;
55762;SDS011;42162;51.958;5.426;2023-09-07T06:23:53;11.65;;;6.38;;
55762;SDS011;42162;51.958;5.426;2023-09-07T06:26:20;10.27;;;5.55;;
55762;SDS011;42162;51.958;5.426;2023-09-07T06:28:47;9.23;;;5.25;;
55762;SDS011;42162;51.958;5.426;2023-09-07T06:31:14;9.00;;;5.38;;
55762;SDS011;42162;51.958;5.426;2023-09-07T06:33:45;7.13;;;5.53;;
55762;SDS011;42162;51.958;5.426;2023-09-07T06:36:12;6.00;;;4.95;;
55762;SDS011;42162;51.958;5.426;2023-09-07T06:38:39;6.60;;;4.70;;
55762;SDS011;42162;51.958;5.426;2023-09-07T06:41:06;10.55;;;5.00;;
55762;SDS011;42162;51.958;5.426;2023-09-07T06:43:35;12.30;;;4.80;;
55762;SDS011;42162;51.958;5.426;2023-09-07T06:46:07;7.75;;;5.32;;
55762;SDS011;42162;51.958;5.426;2023-09-07T06:48:38;4.85;;;4.38;;
55762;SDS011;42162;51.958;5.426;2023-09-07T06:51:05;8.60;;;4.38;;
55762;SDS011;42162;51.958;5.426;2023-09-07T06:53:33;11.43;;;4.75;;
55762;SDS011;42162;51.958;5.426;2023-09-07T06:56:21;5.50;;;4.45;;
55762;SDS011;42162;51.958;5.426;2023-09-07T06:58:48;10.82;;;4.68;;
55762;SDS011;42162;51.958;5.426;2023-09-07T07:01:15;5.65;;;4.30;;
55762;SDS011;42162;51.958;5.426;2023-09-07T07:03:42;6.13;;;4.32;;
55762;SDS011;42162;51.958;5.426;2023-09-07T07:06:10;9.30;;;4.63;;
55762;SDS011;42162;51.958;5.426;2023-09-07T07:08:37;6.78;;;4.20;;
55762;SDS011;42162;51.958;5.426;2023-09-07T07:11:04;7.53;;;5.32;;
55762;SDS011;42162;51.958;5.426;2023-09-07T07:13:33;7.90;;;4.65;;
55762;SDS011;42162;51.958;5.426;2023-09-07T07:16:00;6.07;;;4.20;;
55762;SDS011;42162;51.958;5.426;2023-09-07T07:18:27;11.07;;;4.97;;
55762;SDS011;42162;51.958;5.426;2023-09-07T07:20:56;5.68;;;4.13;;
55762;SDS011;42162;51.958;5.426;2023-09-07T07:23:24;6.00;;;4.43;;
55762;SDS011;42162;51.958;5.426;2023-09-07T07:25:51;10.48;;;5.03;;
55762;SDS011;42162;51.958;5.426;2023-09-07T07:28:19;5.40;;;4.47;;
55762;SDS011;42162;51.958;5.426;2023-09-07T07:30:46;6.82;;;4.60;;
55762;SDS011;42162;51.958;5.426;2023-09-07T07:33:15;7.53;;;4.47;;
55762;SDS011;42162;51.958;5.426;2023-09-07T07:35:42;9.13;;;4.50;;
55762;SDS011;42162;51.958;5.426;2023-09-07T07:38:10;6.70;;;4.40;;
55762;SDS011;42162;51.958;5.426;2023-09-07T07:40:40;5.97;;;3.67;;
55762;SDS011;42162;51.958;5.426;2023-09-07T07:43:09;5.07;;;3.88;;
55762;SDS011;42162;51.958;5.426;2023-09-07T07:45:37;9.25;;;3.92;;
55762;SDS011;42162;51.958;5.426;2023-09-07T07:48:05;7.55;;;4.10;;
55762;SDS011;42162;51.958;5.426;2023-09-07T07:50:40;5.40;;;3.50;;
55762;SDS011;42162;51.958;5.426;2023-09-07T07:53:10;5.13;;;4.03;;
55762;SDS011;42162;51.958;5.426;2023-09-07T07:55:40;5.55;;;3.78;;
55762;SDS011;42162;51.958;5.426;2023-09-07T07:58:11;7.18;;;3.92;;
55762;SDS011;42162;51.958;5.426;2023-09-07T08:00:39;6.47;;;3.13;;
55762;SDS011;42162;51.958;5.426;2023-09-07T08:03:19;5.70;;;3.30;;
55762;SDS011;42162;51.958;5.426;2023-09-07T08:05:46;7.82;;;3.35;;
55762;SDS011;42162;51.958;5.426;2023-09-07T08:08:15;12.32;;;4.13;;
55762;SDS011;42162;51.958;5.426;2023-09-07T08:10:42;6.45;;;3.10;;
55762;SDS011;42162;51.958;5.426;2023-09-07T08:13:12;6.03;;;3.22;;
55762;SDS011;42162;51.958;5.426;2023-09-07T08:15:41;6.78;;;3.40;;
55762;SDS011;42162;51.958;5.426;2023-09-07T08:18:11;9.23;;;2.63;;
55762;SDS011;42162;51.958;5.426;2023-09-07T08:20:39;5.93;;;2.78;;
55762;SDS011;42162;51.958;5.426;2023-09-07T08:23:09;7.20;;;3.53;;
55762;SDS011;42162;51.958;5.426;2023-09-07T08:25:38;10.88;;;3.10;;
55762;SDS011;42162;51.958;5.426;2023-09-07T08:28:06;11.20;;;3.38;;
55762;SDS011;42162;51.958;5.426;2023-09-07T08:30:33;5.55;;;3.13;;
55762;SDS011;42162;51.958;5.426;2023-09-07T08:33:01;3.78;;;2.88;;
55762;SDS011;42162;51.958;5.426;2023-09-07T08:35:29;5.35;;;3.17;;
55762;SDS011;42162;51.958;5.426;2023-09-07T08:37:57;9.27;;;3.17;;
55762;SDS011;42162;51.958;5.426;2023-09-07T08:40:26;5.93;;;2.90;;
55762;SDS011;42162;51.958;5.426;2023-09-07T08:42:54;6.28;;;2.90;;
55762;SDS011;42162;51.958;5.426;2023-09-07T08:45:21;5.43;;;3.03;;
55762;SDS011;42162;51.958;5.426;2023-09-07T08:47:52;6.60;;;3.08;;
55762;SDS011;42162;51.958;5.426;2023-09-07T08:50:21;11.00;;;3.08;;
55762;SDS011;42162;51.958;5.426;2023-09-07T08:52:53;6.03;;;3.10;;
55762;SDS011;42162;51.958;5.426;2023-09-07T08:55:21;6.47;;;3.15;;
55762;SDS011;42162;51.958;5.426;2023-09-07T08:57:48;6.95;;;3.25;;
55762;SDS011;42162;51.958;5.426;2023-09-07T09:00:15;8.77;;;3.13;;
55762;SDS011;42162;51.958;5.426;2023-09-07T09:02:46;5.38;;;2.65;;
55762;SDS011;42162;51.958;5.426;2023-09-07T09:05:22;4.65;;;2.88;;
55762;SDS011;42162;51.958;5.426;2023-09-07T09:08:00;4.53;;;2.75;;
55762;SDS011;42162;51.958;5.426;2023-09-07T09:10:28;5.32;;;2.80;;
55762;SDS011;42162;51.958;5.426;2023-09-07T09:12:55;6.53;;;3.35;;
55762;SDS011;42162;51.958;5.426;2023-09-07T09:15:22;5.95;;;3.40;;
55762;SDS011;42162;51.958;5.426;2023-09-07T09:17:49;11.55;;;2.58;;
55762;SDS011;42162;51.958;5.426;2023-09-07T09:20:23;6.13;;;2.85;;
55762;SDS011;42162;51.958;5.426;2023-09-07T09:22:53;7.75;;;2.88;;
55762;SDS011;42162;51.958;5.426;2023-09-07T09:25:21;4.40;;;2.75;;
55762;SDS011;42162;51.958;5.426;2023-09-07T09:27:48;6.53;;;2.80;;
55762;SDS011;42162;51.958;5.426;2023-09-07T09:30:15;13.45;;;2.55;;
55762;SDS011;42162;51.958;5.426;2023-09-07T09:32:43;2.65;;;2.28;;
55762;SDS011;42162;51.958;5.426;2023-09-07T09:35:10;4.43;;;2.90;;
55762;SDS011;42162;51.958;5.426;2023-09-07T09:37:44;6.90;;;2.60;;
55762;SDS011;42162;51.958;5.426;2023-09-07T09:40:13;5.18;;;2.90;;
55762;SDS011;42162;51.958;5.426;2023-09-07T09:42:43;4.95;;;2.85;;
55762;SDS011;42162;51.958;5.426;2023-09-07T09:45:11;8.57;;;2.33;;
55762;SDS011;42162;51.958;5.426;2023-09-07T09:47:40;6.20;;;2.53;;
55762;SDS011;42162;51.958;5.426;2023-09-07T09:50:09;3.45;;;2.30;;
55762;SDS011;42162;51.958;5.426;2023-09-07T09:52:38;8.25;;;3.28;;
55762;SDS011;42162;51.958;5.426;2023-09-07T09:55:06;7.20;;;3.00;;
55762;SDS011;42162;51.958;5.426;2023-09-07T09:57:35;11.77;;;2.47;;
55762;SDS011;42162;51.958;5.426;2023-09-07T10:00:03;7.53;;;2.67;;
55762;SDS011;42162;51.958;5.426;2023-09-07T10:02:47;4.68;;;2.50;;
55762;SDS011;42162;51.958;5.426;2023-09-07T10:05:18;3.47;;;2.60;;
55762;SDS011;42162;51.958;5.426;2023-09-07T10:07:49;5.60;;;2.55;;
55762;SDS011;42162;51.958;5.426;2023-09-07T10:10:18;3.55;;;2.53;;
55762;SDS011;42162;51.958;5.426;2023-09-07T10:12:52;6.22;;;2.53;;
55762;SDS011;42162;51.958;5.426;2023-09-07T10:15:24;5.65;;;2.60;;
55762;SDS011;42162;51.958;5.426;2023-09-07T10:23:19;6.75;;;2.50;;
55762;SDS011;42162;51.958;5.426;2023-09-07T10:25:50;5.55;;;2.22;;
55762;SDS011;42162;51.958;5.426;2023-09-07T10:30:59;3.70;;;2.28;;
55762;SDS011;42162;51.958;5.426;2023-09-07T10:33:33;4.95;;;2.40;;
55762;SDS011;42162;51.958;5.426;2023-09-07T10:36:03;6.63;;;2.50;;
55762;SDS011;42162;51.958;5.426;2023-09-07T10:38:31;5.35;;;2.20;;
55762;SDS011;42162;51.958;5.426;2023-09-07T10:41:00;9.48;;;2.55;;
55762;SDS011;42162;51.958;5.426;2023-09-07T10:43:28;4.35;;;2.15;;
55762;SDS011;42162;51.958;5.426;2023-09-07T10:45:58;7.50;;;2.38;;
55762;SDS011;42162;51.958;5.426;2023-09-07T10:48:27;6.32;;;2.50;;
55762;SDS011;42162;51.958;5.426;2023-09-07T10:50:56;5.68;;;2.30;;
55762;SDS011;42162;51.958;5.426;2023-09-07T10:53:24;5.05;;;2.50;;
55762;SDS011;42162;51.958;5.426;2023-09-07T10:55:54;3.47;;;2.30;;
55762;SDS011;42162;51.958;5.426;2023-09-07T10:58:26;4.40;;;2.20;;
55762;SDS011;42162;51.958;5.426;2023-09-07T11:00:57;4.60;;;2.42;;
55762;SDS011;42162;51.958;5.426;2023-09-07T11:03:24;4.60;;;2.63;;
55762;SDS011;42162;51.958;5.426;2023-09-07T11:05:59;4.63;;;2.60;;
55762;SDS011;42162;51.958;5.426;2023-09-07T11:08:30;5.32;;;2.38;;
55762;SDS011;42162;51.958;5.426;2023-09-07T11:10:57;7.35;;;2.17;;
55762;SDS011;42162;51.958;5.426;2023-09-07T11:13:24;4.35;;;2.13;;
55762;SDS011;42162;51.958;5.426;2023-09-07T11:15:53;3.72;;;2.35;;
55762;SDS011;42162;51.958;5.426;2023-09-07T11:18:22;3.42;;;2.25;;
55762;SDS011;42162;51.958;5.426;2023-09-07T11:20:50;4.45;;;2.60;;
55762;SDS011;42162;51.958;5.426;2023-09-07T11:23:18;6.78;;;2.90;;
55762;SDS011;42162;51.958;5.426;2023-09-07T11:25:47;4.82;;;2.72;;
55762;SDS011;42162;51.958;5.426;2023-09-07T11:28:18;3.90;;;2.40;;
55762;SDS011;42162;51.958;5.426;2023-09-07T11:30:52;7.88;;;2.85;;
55762;SDS011;42162;51.958;5.426;2023-09-07T11:33:24;7.55;;;2.83;;
55762;SDS011;42162;51.958;5.426;2023-09-07T11:35:52;5.80;;;3.03;;
55762;SDS011;42162;51.958;5.426;2023-09-07T11:38:22;7.20;;;2.57;;
55762;SDS011;42162;51.958;5.426;2023-09-07T11:40:49;5.15;;;2.60;;
55762;SDS011;42162;51.958;5.426;2023-09-07T11:43:17;8.75;;;2.88;;
55762;SDS011;42162;51.958;5.426;2023-09-07T11:45:46;6.35;;;2.63;;
55762;SDS011;42162;51.958;5.426;2023-09-07T11:48:14;5.00;;;2.28;;
55762;SDS011;42162;51.958;5.426;2023-09-07T11:50:41;5.00;;;2.90;;
55762;SDS011;42162;51.958;5.426;2023-09-07T11:53:08;8.50;;;2.75;;
55762;SDS011;42162;51.958;5.426;2023-09-07T11:55:36;10.68;;;2.88;;
55762;SDS011;42162;51.958;5.426;2023-09-07T11:58:04;9.95;;;2.53;;
55762;SDS011;42162;51.958;5.426;2023-09-07T12:00:31;6.22;;;3.00;;
55762;SDS011;42162;51.958;5.426;2023-09-07T12:02:58;5.57;;;2.50;;
55762;SDS011;42162;51.958;5.426;2023-09-07T12:05:26;5.47;;;2.70;;
55762;SDS011;42162;51.958;5.426;2023-09-07T12:07:53;3.00;;;2.05;;
55762;SDS011;42162;51.958;5.426;2023-09-07T12:10:20;3.42;;;2.60;;
55762;SDS011;42162;51.958;5.426;2023-09-07T12:12:48;4.63;;;2.30;;
55762;SDS011;42162;51.958;5.426;2023-09-07T12:15:15;4.85;;;2.40;;
55762;SDS011;42162;51.958;5.426;2023-09-07T12:17:42;4.70;;;2.67;;
55762;SDS011;42162;51.958;5.426;2023-09-07T12:20:09;9.80;;;3.05;;
55762;SDS011;42162;51.958;5.426;2023-09-07T12:22:37;5.10;;;2.83;;
55762;SDS011;42162;51.958;5.426;2023-09-07T12:25:05;5.20;;;2.58;;
55762;SDS011;42162;51.958;5.426;2023-09-07T12:27:45;7.45;;;2.40;;
55762;SDS011;42162;51.958;5.426;2023-09-07T12:30:19;5.28;;;2.80;;
55762;SDS011;42162;51.958;5.426;2023-09-07T12:32:49;5.35;;;2.63;;
55762;SDS011;42162;51.958;5.426;2023-09-07T12:35:17;9.07;;;3.05;;
55762;SDS011;42162;51.958;5.426;2023-09-07T12:37:44;7.85;;;2.63;;
55762;SDS011;42162;51.958;5.426;2023-09-07T12:40:11;5.22;;;2.45;;
55762;SDS011;42162;51.958;5.426;2023-09-07T12:42:42;8.88;;;2.30;;
55762;SDS011;42162;51.958;5.426;2023-09-07T12:45:11;4.45;;;2.67;;
55762;SDS011;42162;51.958;5.426;2023-09-07T12:47:40;5.35;;;2.88;;
55762;SDS011;42162;51.958;5.426;2023-09-07T12:50:08;6.97;;;2.50;;
55762;SDS011;42162;51.958;5.426;2023-09-07T12:52:35;6.38;;;2.92;;
55762;SDS011;42162;51.958;5.426;2023-09-07T12:55:05;6.38;;;2.42;;
55762;SDS011;42162;51.958;5.426;2023-09-07T12:57:34;6.78;;;2.55;;
55762;SDS011;42162;51.958;5.426;2023-09-07T13:00:03;9.32;;;2.45;;
55762;SDS011;42162;51.958;5.426;2023-09-07T13:02:32;4.60;;;2.67;;
55762;SDS011;42162;51.958;5.426;2023-09-07T13:04:59;5.70;;;3.20;;
55762;SDS011;42162;51.958;5.426;2023-09-07T13:07:27;6.28;;;2.40;;
55762;SDS011;42162;51.958;5.426;2023-09-07T13:09:54;11.23;;;2.90;;
55762;SDS011;42162;51.958;5.426;2023-09-07T13:12:21;13.55;;;2.80;;
55762;SDS011;42162;51.958;5.426;2023-09-07T13:14:48;4.90;;;2.50;;
55762;SDS011;42162;51.958;5.426;2023-09-07T13:17:15;10.40;;;2.92;;
55762;SDS011;42162;51.958;5.426;2023-09-07T13:19:43;7.53;;;2.60;;
55762;SDS011;42162;51.958;5.426;2023-09-07T13:22:10;5.10;;;2.63;;
55762;SDS011;42162;51.958;5.426;2023-09-07T13:24:37;9.13;;;2.80;;
55762;SDS011;42162;51.958;5.426;2023-09-07T13:27:05;8.02;;;2.60;;
55762;SDS011;42162;51.958;5.426;2023-09-07T13:29:32;5.90;;;2.42;;
55762;SDS011;42162;51.958;5.426;2023-09-07T13:31:59;6.03;;;2.90;;
55762;SDS011;42162;51.958;5.426;2023-09-07T13:34:27;6.85;;;2.67;;
55762;SDS011;42162;51.958;5.426;2023-09-07T13:36:54;5.13;;;3.00;;
55762;SDS011;42162;51.958;5.426;2023-09-07T13:39:22;4.75;;;2.70;;
55762;SDS011;42162;51.958;5.426;2023-09-07T13:41:49;5.13;;;2.80;;
55762;SDS011;42162;51.958;5.426;2023-09-07T13:44:16;6.63;;;2.85;;
55762;SDS011;42162;51.958;5.426;2023-09-07T13:46:43;5.70;;;2.95;;
55762;SDS011;42162;51.958;5.426;2023-09-07T13:49:11;5.40;;;2.47;;
55762;SDS011;42162;51.958;5.426;2023-09-07T13:51:39;9.95;;;2.50;;
55762;SDS011;42162;51.958;5.426;2023-09-07T13:54:07;4.95;;;2.30;;
55762;SDS011;42162;51.958;5.426;2023-09-07T13:56:35;4.20;;;2.60;;
55762;SDS011;42162;51.958;5.426;2023-09-07T13:59:03;4.70;;;2.95;;
55762;SDS011;42162;51.958;5.426;2023-09-07T14:01:31;5.60;;;2.50;;
55762;SDS011;42162;51.958;5.426;2023-09-07T14:03:59;8.10;;;2.83;;
55762;SDS011;42162;51.958;5.426;2023-09-07T14:06:26;5.68;;;3.05;;
55762;SDS011;42162;51.958;5.426;2023-09-07T14:08:53;8.80;;;2.90;;
55762;SDS011;42162;51.958;5.426;2023-09-07T14:11:21;5.32;;;3.40;;
55762;SDS011;42162;51.958;5.426;2023-09-07T14:13:49;4.63;;;2.72;;
55762;SDS011;42162;51.958;5.426;2023-09-07T14:16:21;6.65;;;2.60;;
55762;SDS011;42162;51.958;5.426;2023-09-07T14:18:49;4.43;;;2.65;;
55762;SDS011;42162;51.958;5.426;2023-09-07T14:21:17;7.50;;;2.55;;
55762;SDS011;42162;51.958;5.426;2023-09-07T14:23:44;6.80;;;3.55;;
55762;SDS011;42162;51.958;5.426;2023-09-07T14:26:12;8.00;;;2.92;;
55762;SDS011;42162;51.958;5.426;2023-09-07T14:28:39;8.27;;;2.35;;
55762;SDS011;42162;51.958;5.426;2023-09-07T14:31:06;13.02;;;3.00;;
55762;SDS011;42162;51.958;5.426;2023-09-07T14:33:35;5.85;;;2.85;;
55762;SDS011;42162;51.958;5.426;2023-09-07T14:36:06;3.30;;;2.47;;
55762;SDS011;42162;51.958;5.426;2023-09-07T14:38:36;6.93;;;2.75;;
55762;SDS011;42162;51.958;5.426;2023-09-07T14:41:08;4.18;;;2.90;;
55762;SDS011;42162;51.958;5.426;2023-09-07T14:43:46;7.65;;;3.10;;
55762;SDS011;42162;51.958;5.426;2023-09-07T14:46:14;4.40;;;2.80;;
55762;SDS011;42162;51.958;5.426;2023-09-07T14:48:41;4.35;;;2.70;;
55762;SDS011;42162;51.958;5.426;2023-09-07T14:51:10;8.20;;;3.13;;
55762;SDS011;42162;51.958;5.426;2023-09-07T14:53:37;4.55;;;2.78;;
55762;SDS011;42162;51.958;5.426;2023-09-07T14:56:04;8.55;;;3.05;;
55762;SDS011;42162;51.958;5.426;2023-09-07T14:58:32;7.13;;;2.53;;
55762;SDS011;42162;51.958;5.426;2023-09-07T15:01:00;7.63;;;2.90;;
55762;SDS011;42162;51.958;5.426;2023-09-07T15:03:27;5.35;;;3.00;;